sensor_id;sensor_type;location;lat;lon;timestamp;pressure;altitude;pressure_sealevel;temperature;humidity
43683;BME280;29285;52.128;21.060;2023-06-14T00:04:36;100488.55;;;14.64;100.00
43683;BME280;29285;52.128;21.060;2023-06-14T00:09:38;100487.09;;;14.61;100.00
43683;BME280;29285;52.128;21.060;2023-06-14T00:14:39;100488.77;;;14.63;100.00
43683;BME280;29285;52.128;21.060;2023-06-14T00:19:40;100489.94;;;14.65;100.00
43683;BME280;29285;52.128;21.060;2023-06-14T00:24:41;100494.23;;;14.67;100.00
43683;BME280;29285;52.128;21.060;2023-06-14T00:29:42;100490.11;;;14.71;100.00
43683;BME280;29285;52.128;21.060;2023-06-14T00:34:44;100490.60;;;14.72;100.00
43683;BME280;29285;52.128;21.060;2023-06-14T00:39:45;100491.10;;;14.73;100.00
43683;BME280;29285;52.128;21.060;2023-06-14T00:44:46;100486.52;;;14.74;100.00
43683;BME280;29285;52.128;21.060;2023-06-14T00:49:47;100485.38;;;14.71;100.00
43683;BME280;29285;52.128;21.060;2023-06-14T00:54:48;100488.83;;;14.66;100.00
43683;BME280;29285;52.128;21.060;2023-06-14T00:59:50;100487.19;;;14.69;100.00
43683;BME280;29285;52.128;21.060;2023-06-14T01:04:51;100484.50;;;14.71;100.00
43683;BME280;29285;52.128;21.060;2023-06-14T01:09:58;100483.42;;;14.66;100.00
43683;BME280;29285;52.128;21.060;2023-06-14T01:15:04;100492.20;;;14.65;100.00
43683;BME280;29285;52.128;21.060;2023-06-14T01:20:07;100492.64;;;14.62;100.00
43683;BME280;29285;52.128;21.060;2023-06-14T01:25:10;100487.36;;;14.57;100.00
43683;BME280;29285;52.128;21.060;2023-06-14T01:30:13;100483.00;;;14.57;100.00
43683;BME280;29285;52.128;21.060;2023-06-14T01:35:14;100478.51;;;14.56;100.00
43683;BME280;29285;52.128;21.060;2023-06-14T01:40:16;100478.73;;;14.54;100.00
43683;BME280;29285;52.128;21.060;2023-06-14T01:45:19;100479.80;;;14.53;100.00
43683;BME280;29285;52.128;21.060;2023-06-14T01:50:21;100474.27;;;14.52;100.00
43683;BME280;29285;52.128;21.060;2023-06-14T01:55:22;100464.58;;;14.49;100.00
43683;BME280;29285;52.128;21.060;2023-06-14T02:00:23;100465.96;;;14.49;100.00
43683;BME280;29285;52.128;21.060;2023-06-14T02:05:24;100463.39;;;14.48;100.00
43683;BME280;29285;52.128;21.060;2023-06-14T02:10:25;100454.10;;;14.43;100.00
43683;BME280;29285;52.128;21.060;2023-06-14T02:15:27;100456.71;;;14.37;100.00
43683;BME280;29285;52.128;21.060;2023-06-14T02:20:34;100462.57;;;14.40;100.00
43683;BME280;29285;52.128;21.060;2023-06-14T02:25:36;100463.14;;;14.45;100.00
43683;BME280;29285;52.128;21.060;2023-06-14T02:30:37;100465.45;;;14.49;100.00
43683;BME280;29285;52.128;21.060;2023-06-14T02:35:38;100464.36;;;14.51;100.00
43683;BME280;29285;52.128;21.060;2023-06-14T02:40:39;100459.79;;;14.52;100.00
43683;BME280;29285;52.128;21.060;2023-06-14T02:45:43;100450.68;;;14.53;100.00
43683;BME280;29285;52.128;21.060;2023-06-14T02:50:44;100450.94;;;14.55;100.00
43683;BME280;29285;52.128;21.060;2023-06-14T02:55:45;100449.11;;;14.58;100.00
43683;BME280;29285;52.128;21.060;2023-06-14T03:00:47;100446.33;;;14.58;100.00
43683;BME280;29285;52.128;21.060;2023-06-14T03:05:50;100441.83;;;14.56;100.00
43683;BME280;29285;52.128;21.060;2023-06-14T03:10:52;100445.13;;;14.57;100.00
43683;BME280;29285;52.128;21.060;2023-06-14T03:15:54;100443.91;;;14.57;100.00
43683;BME280;29285;52.128;21.060;2023-06-14T03:20:57;100443.43;;;14.61;100.00
43683;BME280;29285;52.128;21.060;2023-06-14T03:25:58;100448.27;;;14.63;100.00
43683;BME280;29285;52.128;21.060;2023-06-14T03:31:00;100448.91;;;14.65;100.00
43683;BME280;29285;52.128;21.060;2023-06-14T03:36:02;100450.59;;;14.66;100.00
43683;BME280;29285;52.128;21.060;2023-06-14T03:41:03;100451.31;;;14.66;100.00
43683;BME280;29285;52.128;21.060;2023-06-14T03:46:04;100446.40;;;14.67;100.00
43683;BME280;29285;52.128;21.060;2023-06-14T03:51:05;100446.57;;;14.67;100.00
43683;BME280;29285;52.128;21.060;2023-06-14T03:56:06;100449.11;;;14.69;100.00
43683;BME280;29285;52.128;21.060;2023-06-14T04:01:08;100451.98;;;14.73;100.00
43683;BME280;29285;52.128;21.060;2023-06-14T04:06:09;100452.86;;;14.79;100.00
43683;BME280;29285;52.128;21.060;2023-06-14T04:11:10;100459.84;;;14.85;100.00
43683;BME280;29285;52.128;21.060;2023-06-14T04:16:11;100460.13;;;14.92;100.00
43683;BME280;29285;52.128;21.060;2023-06-14T04:21:12;100460.26;;;14.99;100.00
43683;BME280;29285;52.128;21.060;2023-06-14T04:26:13;100460.08;;;15.05;100.00
43683;BME280;29285;52.128;21.060;2023-06-14T04:31:15;100453.46;;;15.09;100.00
43683;BME280;29285;52.128;21.060;2023-06-14T04:36:17;100449.55;;;15.12;100.00
43683;BME280;29285;52.128;21.060;2023-06-14T04:41:18;100449.17;;;15.13;100.00
43683;BME280;29285;52.128;21.060;2023-06-14T04:46:19;100451.38;;;15.14;100.00
43683;BME280;29285;52.128;21.060;2023-06-14T04:51:21;100453.95;;;15.16;100.00
43683;BME280;29285;52.128;21.060;2023-06-14T04:56:23;100448.16;;;15.17;100.00
43683;BME280;29285;52.128;21.060;2023-06-14T05:01:25;100455.14;;;15.17;100.00
43683;BME280;29285;52.128;21.060;2023-06-14T05:06:27;100460.30;;;15.20;100.00
43683;BME280;29285;52.128;21.060;2023-06-14T05:11:31;100457.88;;;15.19;100.00
43683;BME280;29285;52.128;21.060;2023-06-14T05:16:32;100466.21;;;15.21;100.00
43683;BME280;29285;52.128;21.060;2023-06-14T05:21:33;100473.92;;;15.25;100.00
43683;BME280;29285;52.128;21.060;2023-06-14T05:26:37;100470.30;;;15.34;100.00
43683;BME280;29285;52.128;21.060;2023-06-14T05:31:38;100464.02;;;15.39;100.00
43683;BME280;29285;52.128;21.060;2023-06-14T05:36:39;100469.88;;;15.47;100.00
43683;BME280;29285;52.128;21.060;2023-06-14T05:41:41;100467.89;;;15.48;100.00
43683;BME280;29285;52.128;21.060;2023-06-14T05:46:42;100464.94;;;15.53;100.00
43683;BME280;29285;52.128;21.060;2023-06-14T05:51:42;100463.56;;;15.63;100.00
43683;BME280;29285;52.128;21.060;2023-06-14T05:56:44;100462.68;;;15.68;100.00
43683;BME280;29285;52.128;21.060;2023-06-14T06:01:45;100467.24;;;15.72;100.00
43683;BME280;29285;52.128;21.060;2023-06-14T06:06:47;100463.17;;;15.79;100.00
43683;BME280;29285;52.128;21.060;2023-06-14T06:11:48;100466.45;;;15.85;100.00
43683;BME280;29285;52.128;21.060;2023-06-14T06:16:50;100458.89;;;16.06;100.00
43683;BME280;29285;52.128;21.060;2023-06-14T06:21:53;100462.40;;;16.29;100.00
43683;BME280;29285;52.128;21.060;2023-06-14T06:26:54;100465.40;;;16.38;100.00
43683;BME280;29285;52.128;21.060;2023-06-14T06:31:55;100465.21;;;16.48;100.00
43683;BME280;29285;52.128;21.060;2023-06-14T06:36:57;100469.55;;;16.54;100.00
43683;BME280;29285;52.128;21.060;2023-06-14T06:41:58;100465.29;;;16.60;100.00
43683;BME280;29285;52.128;21.060;2023-06-14T06:46:58;100464.38;;;16.74;100.00
43683;BME280;29285;52.128;21.060;2023-06-14T06:52:01;100465.03;;;16.97;100.00
43683;BME280;29285;52.128;21.060;2023-06-14T06:57:03;100469.54;;;17.08;100.00
43683;BME280;29285;52.128;21.060;2023-06-14T07:02:04;100481.44;;;17.13;100.00
43683;BME280;29285;52.128;21.060;2023-06-14T07:07:06;100483.74;;;17.21;100.00
43683;BME280;29285;52.128;21.060;2023-06-14T07:12:07;100491.77;;;17.26;100.00
43683;BME280;29285;52.128;21.060;2023-06-14T07:17:08;100495.09;;;17.31;100.00
43683;BME280;29285;52.128;21.060;2023-06-14T07:22:10;100493.95;;;17.32;100.00
43683;BME280;29285;52.128;21.060;2023-06-14T07:27:11;100497.31;;;17.31;100.00
43683;BME280;29285;52.128;21.060;2023-06-14T07:32:14;100496.80;;;17.32;100.00
43683;BME280;29285;52.128;21.060;2023-06-14T07:37:15;100498.96;;;17.26;100.00
43683;BME280;29285;52.128;21.060;2023-06-14T07:42:15;100500.15;;;17.23;100.00
43683;BME280;29285;52.128;21.060;2023-06-14T07:47:17;100500.99;;;17.23;100.00
43683;BME280;29285;52.128;21.060;2023-06-14T07:52:18;100500.44;;;17.24;100.00
43683;BME280;29285;52.128;21.060;2023-06-14T07:57:19;100501.67;;;17.28;100.00
43683;BME280;29285;52.128;21.060;2023-06-14T08:02:21;100506.38;;;17.29;100.00
43683;BME280;29285;52.128;21.060;2023-06-14T08:07:22;100510.35;;;17.30;100.00
43683;BME280;29285;52.128;21.060;2023-06-14T08:12:23;100511.98;;;17.37;100.00
43683;BME280;29285;52.128;21.060;2023-06-14T08:17:24;100517.48;;;17.53;100.00
43683;BME280;29285;52.128;21.060;2023-06-14T08:22:25;100518.73;;;17.73;100.00
43683;BME280;29285;52.128;21.060;2023-06-14T08:27:29;100512.09;;;17.93;100.00
43683;BME280;29285;52.128;21.060;2023-06-14T08:32:30;100510.00;;;18.13;100.00
43683;BME280;29285;52.128;21.060;2023-06-14T08:37:31;100500.48;;;18.38;100.00
43683;BME280;29285;52.128;21.060;2023-06-14T08:42:35;100497.82;;;18.65;100.00
43683;BME280;29285;52.128;21.060;2023-06-14T08:47:37;100494.95;;;18.73;100.00
43683;BME280;29285;52.128;21.060;2023-06-14T08:52:40;100497.02;;;18.78;100.00
43683;BME280;29285;52.128;21.060;2023-06-14T08:57:50;100497.21;;;18.92;100.00
43683;BME280;29285;52.128;21.060;2023-06-14T09:02:52;100494.95;;;19.11;100.00
43683;BME280;29285;52.128;21.060;2023-06-14T09:07:58;100494.70;;;19.23;100.00
43683;BME280;29285;52.128;21.060;2023-06-14T09:13:01;100492.56;;;19.35;100.00
43683;BME280;29285;52.128;21.060;2023-06-14T09:18:03;100496.88;;;19.50;100.00
43683;BME280;29285;52.128;21.060;2023-06-14T09:23:04;100499.05;;;19.63;100.00
43683;BME280;29285;52.128;21.060;2023-06-14T09:28:07;100498.68;;;19.77;100.00
43683;BME280;29285;52.128;21.060;2023-06-14T09:33:09;100499.05;;;19.83;100.00
43683;BME280;29285;52.128;21.060;2023-06-14T09:38:10;100498.40;;;19.86;100.00
43683;BME280;29285;52.128;21.060;2023-06-14T09:43:11;100495.20;;;19.96;100.00
43683;BME280;29285;52.128;21.060;2023-06-14T09:48:12;100493.29;;;20.20;100.00
43683;BME280;29285;52.128;21.060;2023-06-14T09:53:21;100493.64;;;20.30;100.00
43683;BME280;29285;52.128;21.060;2023-06-14T09:58:26;100488.21;;;20.36;100.00
43683;BME280;29285;52.128;21.060;2023-06-14T10:03:29;100487.19;;;20.52;100.00
43683;BME280;29285;52.128;21.060;2023-06-14T10:08:32;100480.82;;;20.65;100.00
43683;BME280;29285;52.128;21.060;2023-06-14T10:13:37;100481.35;;;20.81;100.00
43683;BME280;29285;52.128;21.060;2023-06-14T10:23:45;100481.17;;;20.94;100.00
43683;BME280;29285;52.128;21.060;2023-06-14T10:28:59;100480.97;;;20.84;100.00
43683;BME280;29285;52.128;21.060;2023-06-14T10:34:01;100485.52;;;20.82;100.00
43683;BME280;29285;52.128;21.060;2023-06-14T10:39:08;100481.55;;;20.84;100.00
43683;BME280;29285;52.128;21.060;2023-06-14T10:49:16;100472.13;;;20.91;100.00
43683;BME280;29285;52.128;21.060;2023-06-14T10:54:22;100467.23;;;20.97;100.00
43683;BME280;29285;52.128;21.060;2023-06-14T10:59:24;100465.85;;;21.09;100.00
43683;BME280;29285;52.128;21.060;2023-06-14T11:04:47;100465.54;;;21.23;100.00
43683;BME280;29285;52.128;21.060;2023-06-14T11:14:57;100467.82;;;21.17;100.00
43683;BME280;29285;52.128;21.060;2023-06-14T11:20:11;100467.15;;;20.98;100.00
43683;BME280;29285;52.128;21.060;2023-06-14T11:25:19;100469.69;;;20.81;100.00
43683;BME280;29285;52.128;21.060;2023-06-14T11:30:20;100472.42;;;20.73;100.00
43683;BME280;29285;52.128;21.060;2023-06-14T11:35:22;100470.20;;;20.69;100.00
43683;BME280;29285;52.128;21.060;2023-06-14T11:40:25;100472.52;;;20.59;100.00
43683;BME280;29285;52.128;21.060;2023-06-14T11:45:26;100471.42;;;20.50;100.00
43683;BME280;29285;52.128;21.060;2023-06-14T11:50:28;100471.42;;;20.49;100.00
43683;BME280;29285;52.128;21.060;2023-06-14T11:55:29;100462.76;;;20.60;100.00
43683;BME280;29285;52.128;21.060;2023-06-14T12:00:30;100459.77;;;20.72;100.00
43683;BME280;29285;52.128;21.060;2023-06-14T12:05:32;100457.92;;;20.84;100.00
43683;BME280;29285;52.128;21.060;2023-06-14T12:10:41;100457.59;;;21.17;100.00
43683;BME280;29285;52.128;21.060;2023-06-14T12:15:44;100448.89;;;21.63;100.00
43683;BME280;29285;52.128;21.060;2023-06-14T12:20:49;100440.52;;;22.14;100.00
43683;BME280;29285;52.128;21.060;2023-06-14T12:25:50;100438.12;;;22.58;100.00
43683;BME280;29285;52.128;21.060;2023-06-14T12:30:53;100440.06;;;22.72;100.00
43683;BME280;29285;52.128;21.060;2023-06-14T12:35:55;100437.38;;;23.10;100.00
43683;BME280;29285;52.128;21.060;2023-06-14T12:40:57;100438.16;;;23.41;100.00
43683;BME280;29285;52.128;21.060;2023-06-14T12:45:59;100436.23;;;23.64;100.00
43683;BME280;29285;52.128;21.060;2023-06-14T12:51:00;100426.98;;;23.78;100.00
43683;BME280;29285;52.128;21.060;2023-06-14T12:56:01;100422.34;;;23.93;100.00
43683;BME280;29285;52.128;21.060;2023-06-14T13:01:01;100417.45;;;24.10;100.00
43683;BME280;29285;52.128;21.060;2023-06-14T13:06:03;100424.30;;;23.85;100.00
43683;BME280;29285;52.128;21.060;2023-06-14T13:11:04;100428.41;;;23.54;100.00
43683;BME280;29285;52.128;21.060;2023-06-14T13:16:06;100430.91;;;23.54;100.00
43683;BME280;29285;52.128;21.060;2023-06-14T13:21:07;100424.24;;;23.73;100.00
43683;BME280;29285;52.128;21.060;2023-06-14T13:26:08;100416.89;;;23.93;100.00
43683;BME280;29285;52.128;21.060;2023-06-14T13:31:09;100413.87;;;23.93;100.00
43683;BME280;29285;52.128;21.060;2023-06-14T13:36:10;100414.05;;;24.05;100.00
43683;BME280;29285;52.128;21.060;2023-06-14T13:41:11;100410.71;;;23.97;100.00
43683;BME280;29285;52.128;21.060;2023-06-14T13:46:12;100407.04;;;24.07;100.00
43683;BME280;29285;52.128;21.060;2023-06-14T13:51:13;100403.76;;;23.98;100.00
43683;BME280;29285;52.128;21.060;2023-06-14T13:56:15;100403.25;;;23.92;100.00
43683;BME280;29285;52.128;21.060;2023-06-14T14:01:16;100398.30;;;23.90;100.00
43683;BME280;29285;52.128;21.060;2023-06-14T14:06:19;100398.25;;;23.78;100.00
43683;BME280;29285;52.128;21.060;2023-06-14T14:11:20;100391.23;;;23.62;100.00
43683;BME280;29285;52.128;21.060;2023-06-14T14:16:21;100394.11;;;23.56;100.00
43683;BME280;29285;52.128;21.060;2023-06-14T14:21:22;100399.84;;;23.57;100.00
43683;BME280;29285;52.128;21.060;2023-06-14T14:26:23;100397.78;;;23.52;100.00
43683;BME280;29285;52.128;21.060;2023-06-14T14:31:24;100397.89;;;23.78;100.00
43683;BME280;29285;52.128;21.060;2023-06-14T14:36:25;100394.46;;;23.94;100.00
43683;BME280;29285;52.128;21.060;2023-06-14T14:41:27;100392.52;;;23.91;100.00
43683;BME280;29285;52.128;21.060;2023-06-14T14:46:28;100384.67;;;23.89;100.00
43683;BME280;29285;52.128;21.060;2023-06-14T14:51:30;100385.09;;;23.74;100.00
43683;BME280;29285;52.128;21.060;2023-06-14T14:56:31;100380.48;;;24.01;100.00
43683;BME280;29285;52.128;21.060;2023-06-14T15:01:32;100382.36;;;24.20;100.00
43683;BME280;29285;52.128;21.060;2023-06-14T15:06:33;100382.18;;;23.90;100.00
43683;BME280;29285;52.128;21.060;2023-06-14T15:11:40;100375.17;;;23.81;100.00
43683;BME280;29285;52.128;21.060;2023-06-14T15:16:40;100371.30;;;23.86;100.00
43683;BME280;29285;52.128;21.060;2023-06-14T15:21:42;100368.59;;;24.12;100.00
43683;BME280;29285;52.128;21.060;2023-06-14T15:26:42;100371.52;;;24.49;100.00
43683;BME280;29285;52.128;21.060;2023-06-14T15:31:43;100369.67;;;24.65;100.00
43683;BME280;29285;52.128;21.060;2023-06-14T15:36:44;100370.05;;;24.45;100.00
43683;BME280;29285;52.128;21.060;2023-06-14T15:41:45;100370.38;;;24.07;100.00
43683;BME280;29285;52.128;21.060;2023-06-14T15:46:46;100368.00;;;23.75;100.00
43683;BME280;29285;52.128;21.060;2023-06-14T15:51:48;100363.83;;;23.59;100.00
43683;BME280;29285;52.128;21.060;2023-06-14T15:56:49;100367.23;;;23.53;100.00
43683;BME280;29285;52.128;21.060;2023-06-14T16:01:50;100367.92;;;23.43;100.00
43683;BME280;29285;52.128;21.060;2023-06-14T16:06:51;100365.31;;;23.45;100.00
43683;BME280;29285;52.128;21.060;2023-06-14T16:11:52;100367.49;;;23.34;100.00
43683;BME280;29285;52.128;21.060;2023-06-14T16:16:55;100373.45;;;23.13;100.00
43683;BME280;29285;52.128;21.060;2023-06-14T16:21:56;100375.26;;;22.97;100.00
43683;BME280;29285;52.128;21.060;2023-06-14T16:26:57;100375.89;;;22.95;100.00
43683;BME280;29285;52.128;21.060;2023-06-14T16:31:59;100379.64;;;22.71;100.00
43683;BME280;29285;52.128;21.060;2023-06-14T16:37:01;100377.81;;;22.47;100.00
43683;BME280;29285;52.128;21.060;2023-06-14T16:42:02;100374.77;;;22.25;100.00
43683;BME280;29285;52.128;21.060;2023-06-14T16:47:03;100378.91;;;22.13;100.00
43683;BME280;29285;52.128;21.060;2023-06-14T16:52:07;100382.67;;;21.95;100.00
43683;BME280;29285;52.128;21.060;2023-06-14T16:57:08;100382.85;;;21.81;100.00
43683;BME280;29285;52.128;21.060;2023-06-14T17:02:09;100381.86;;;21.65;100.00
43683;BME280;29285;52.128;21.060;2023-06-14T17:07:10;100386.13;;;21.30;100.00
43683;BME280;29285;52.128;21.060;2023-06-14T17:12:11;100387.63;;;21.01;100.00
43683;BME280;29285;52.128;21.060;2023-06-14T17:17:12;100388.75;;;20.72;100.00
43683;BME280;29285;52.128;21.060;2023-06-14T17:22:13;100389.15;;;20.53;100.00
43683;BME280;29285;52.128;21.060;2023-06-14T17:27:14;100389.86;;;20.34;100.00
43683;BME280;29285;52.128;21.060;2023-06-14T17:32:16;100393.99;;;20.16;100.00
43683;BME280;29285;52.128;21.060;2023-06-14T17:37:17;100399.70;;;19.95;100.00
43683;BME280;29285;52.128;21.060;2023-06-14T17:42:18;100403.73;;;19.65;100.00
43683;BME280;29285;52.128;21.060;2023-06-14T17:47:19;100407.73;;;19.39;100.00
43683;BME280;29285;52.128;21.060;2023-06-14T17:52:23;100409.35;;;19.18;100.00
43683;BME280;29285;52.128;21.060;2023-06-14T17:57:24;100408.41;;;19.01;100.00
43683;BME280;29285;52.128;21.060;2023-06-14T18:02:25;100409.16;;;18.89;100.00
43683;BME280;29285;52.128;21.060;2023-06-14T18:07:26;100413.36;;;18.82;100.00
43683;BME280;29285;52.128;21.060;2023-06-14T18:12:29;100411.27;;;18.71;100.00
43683;BME280;29285;52.128;21.060;2023-06-14T18:17:30;100415.48;;;18.60;100.00
43683;BME280;29285;52.128;21.060;2023-06-14T18:22:31;100417.19;;;18.54;100.00
43683;BME280;29285;52.128;21.060;2023-06-14T18:27:32;100420.01;;;18.50;100.00
43683;BME280;29285;52.128;21.060;2023-06-14T18:32:33;100419.11;;;18.47;100.00
43683;BME280;29285;52.128;21.060;2023-06-14T18:37:36;100422.13;;;18.46;100.00
43683;BME280;29285;52.128;21.060;2023-06-14T18:42:37;100416.88;;;18.45;100.00
43683;BME280;29285;52.128;21.060;2023-06-14T18:47:38;100417.90;;;18.43;100.00
43683;BME280;29285;52.128;21.060;2023-06-14T18:52:39;100423.70;;;18.42;100.00
43683;BME280;29285;52.128;21.060;2023-06-14T18:57:40;100425.99;;;18.42;100.00
43683;BME280;29285;52.128;21.060;2023-06-14T19:02:41;100427.96;;;18.41;100.00
43683;BME280;29285;52.128;21.060;2023-06-14T19:07:42;100428.42;;;18.39;100.00
43683;BME280;29285;52.128;21.060;2023-06-14T19:12:43;100437.91;;;18.38;100.00
43683;BME280;29285;52.128;21.060;2023-06-14T19:18:14;100441.55;;;18.36;100.00
43683;BME280;29285;52.128;21.060;2023-06-14T19:23:15;100445.85;;;18.31;100.00
43683;BME280;29285;52.128;21.060;2023-06-14T19:28:16;100443.27;;;18.25;100.00
43683;BME280;29285;52.128;21.060;2023-06-14T19:33:17;100444.88;;;18.21;100.00
43683;BME280;29285;52.128;21.060;2023-06-14T19:38:18;100443.02;;;18.16;100.00
43683;BME280;29285;52.128;21.060;2023-06-14T19:43:19;100450.67;;;18.13;100.00
43683;BME280;29285;52.128;21.060;2023-06-14T19:48:20;100448.34;;;18.06;100.00
43683;BME280;29285;52.128;21.060;2023-06-14T19:53:21;100449.59;;;18.02;100.00
43683;BME280;29285;52.128;21.060;2023-06-14T19:58:22;100451.02;;;17.97;100.00
43683;BME280;29285;52.128;21.060;2023-06-14T20:03:23;100446.44;;;17.89;100.00
43683;BME280;29285;52.128;21.060;2023-06-14T20:08:24;100451.09;;;17.83;100.00
43683;BME280;29285;52.128;21.060;2023-06-14T20:13:25;100450.28;;;17.78;100.00
43683;BME280;29285;52.128;21.060;2023-06-14T20:18:26;100449.02;;;17.75;100.00
43683;BME280;29285;52.128;21.060;2023-06-14T20:23:27;100449.80;;;17.72;100.00
43683;BME280;29285;52.128;21.060;2023-06-14T20:28:28;100452.48;;;17.71;100.00
43683;BME280;29285;52.128;21.060;2023-06-14T20:33:29;100450.50;;;17.65;100.00
43683;BME280;29285;52.128;21.060;2023-06-14T20:38:30;100452.81;;;17.56;100.00
43683;BME280;29285;52.128;21.060;2023-06-14T20:43:31;100456.71;;;17.51;100.00
43683;BME280;29285;52.128;21.060;2023-06-14T20:48:32;100451.39;;;17.48;100.00
43683;BME280;29285;52.128;21.060;2023-06-14T20:53:33;100454.30;;;17.46;100.00
43683;BME280;29285;52.128;21.060;2023-06-14T20:58:34;100458.36;;;17.41;100.00
43683;BME280;29285;52.128;21.060;2023-06-14T21:03:35;100456.73;;;17.34;100.00
43683;BME280;29285;52.128;21.060;2023-06-14T21:08:36;100457.28;;;17.25;100.00
43683;BME280;29285;52.128;21.060;2023-06-14T21:13:37;100454.52;;;17.15;100.00
43683;BME280;29285;52.128;21.060;2023-06-14T21:18:38;100455.42;;;17.11;100.00
43683;BME280;29285;52.128;21.060;2023-06-14T21:23:39;100451.64;;;17.09;100.00
43683;BME280;29285;52.128;21.060;2023-06-14T21:28:40;100448.80;;;17.05;100.00
43683;BME280;29285;52.128;21.060;2023-06-14T21:33:41;100450.51;;;17.02;100.00
43683;BME280;29285;52.128;21.060;2023-06-14T21:38:42;100453.17;;;16.92;100.00
43683;BME280;29285;52.128;21.060;2023-06-14T21:43:43;100455.27;;;16.83;100.00
43683;BME280;29285;52.128;21.060;2023-06-14T21:48:44;100448.58;;;16.79;100.00
43683;BME280;29285;52.128;21.060;2023-06-14T21:53:45;100452.38;;;16.76;100.00
43683;BME280;29285;52.128;21.060;2023-06-14T21:58:49;100451.47;;;16.73;100.00
43683;BME280;29285;52.128;21.060;2023-06-14T22:03:50;100445.39;;;16.67;100.00
43683;BME280;29285;52.128;21.060;2023-06-14T22:08:52;100436.67;;;16.62;100.00
43683;BME280;29285;52.128;21.060;2023-06-14T22:13:53;100428.55;;;16.59;100.00
43683;BME280;29285;52.128;21.060;2023-06-14T22:18:54;100429.48;;;16.58;100.00
43683;BME280;29285;52.128;21.060;2023-06-14T22:23:58;100427.48;;;16.59;100.00
43683;BME280;29285;52.128;21.060;2023-06-14T22:28:59;100421.77;;;16.58;100.00
43683;BME280;29285;52.128;21.060;2023-06-14T22:34:06;100424.44;;;16.57;100.00
43683;BME280;29285;52.128;21.060;2023-06-14T22:39:08;100424.44;;;16.52;100.00
43683;BME280;29285;52.128;21.060;2023-06-14T22:44:10;100422.81;;;16.49;100.00
43683;BME280;29285;52.128;21.060;2023-06-14T22:49:12;100419.94;;;16.50;100.00
43683;BME280;29285;52.128;21.060;2023-06-14T22:54:15;100419.84;;;16.53;100.00
43683;BME280;29285;52.128;21.060;2023-06-14T22:59:16;100425.27;;;16.58;100.00
43683;BME280;29285;52.128;21.060;2023-06-14T23:04:19;100428.77;;;16.62;100.00
43683;BME280;29285;52.128;21.060;2023-06-14T23:09:21;100429.35;;;16.65;100.00
43683;BME280;29285;52.128;21.060;2023-06-14T23:14:22;100426.97;;;16.68;100.00
43683;BME280;29285;52.128;21.060;2023-06-14T23:19:27;100435.03;;;16.72;100.00
43683;BME280;29285;52.128;21.060;2023-06-14T23:24:31;100431.79;;;16.74;100.00
43683;BME280;29285;52.128;21.060;2023-06-14T23:29:35;100429.10;;;16.76;100.00
43683;BME280;29285;52.128;21.060;2023-06-14T23:34:36;100422.98;;;16.76;100.00
43683;BME280;29285;52.128;21.060;2023-06-14T23:39:37;100411.65;;;16.69;100.00
43683;BME280;29285;52.128;21.060;2023-06-14T23:44:49;100408.86;;;16.61;100.00
43683;BME280;29285;52.128;21.060;2023-06-14T23:49:50;100402.60;;;16.55;100.00
43683;BME280;29285;52.128;21.060;2023-06-14T23:54:52;100396.66;;;16.50;100.00
43683;BME280;29285;52.128;21.060;2023-06-14T23:59:53;100387.91;;;16.46;100.00
